Time,TemperatureF,DewpointF,PressureIn,WindDirection,WindDirectionDegrees,WindSpeedMPH,WindSpeedGustMPH,Humidity,HourlyPrecipIn,Conditions,Clouds,dailyrainin,SoftwareType,DateUTC
2013-07-20 00:00:00,70.6,65.9,29.81,South,180,4.0,10.0,85,0.00,,,-99.99,WeatherLink 5.6,2013-07-20 04:00:00,
2013-07-20 00:30:00,69.9,66.8,29.82,South,180,5.0,15.0,90,0.00,,,-99.99,WeatherLink 5.6,2013-07-20 04:30:00,
2013-07-20 01:00:00,69.0,66.9,29.81,South,180,2.0,17.0,93,0.00,,,-99.99,WeatherLink 5.6,2013-07-20 05:00:00,
2013-07-20 01:30:00,69.0,66.9,29.81,SSW,202,1.0,7.0,93,0.00,,,-99.99,WeatherLink 5.6,2013-07-20 05:30:00,
2013-07-20 02:00:00,68.7,66.9,29.83,South,180,2.0,7.0,94,0.00,,,-99.99,WeatherLink 5.6,2013-07-20 06:00:00,
2013-07-20 02:30:00,67.2,65.7,29.82,South,180,4.0,10.0,95,0.00,,,-99.99,WeatherLink 5.6,2013-07-20 06:30:00,
2013-07-20 03:00:00,67.1,66.2,29.81,South,180,4.0,10.0,97,0.00,,,-99.99,WeatherLink 5.6,2013-07-20 07:00:00,
2013-07-20 03:30:00,67.2,66.3,29.80,South,180,4.0,13.0,97,0.00,,,-99.99,WeatherLink 5.6,2013-07-20 07:30:00,
2013-07-20 04:00:00,67.6,66.4,29.80,South,180,4.0,11.0,96,0.00,,,-99.99,WeatherLink 5.6,2013-07-20 08:00:00,
2013-07-20 04:30:00,67.4,65.9,29.78,South,180,3.0,11.0,95,0.00,,,-99.99,WeatherLink 5.6,2013-07-20 08:30:00,
2013-07-20 05:00:00,66.9,65.7,29.79,South,180,2.0,9.0,96,0.00,,,-99.99,WeatherLink 5.6,2013-07-20 09:00:00,
2013-07-20 05:30:00,67.0,65.8,29.81,South,180,0.0,1.0,96,0.00,,,-99.99,WeatherLink 5.6,2013-07-20 09:30:00,
2013-07-20 06:00:00,66.9,65.7,29.82,North,-999,0.0,0.0,96,0.00,,,-99.99,WeatherLink 5.6,2013-07-20 10:00:00,
2013-07-20 06:30:00,67.5,66.0,29.81,SSW,202,0.0,4.0,95,0.00,,,-99.99,WeatherLink 5.6,2013-07-20 10:30:00,
2013-07-20 07:00:00,69.4,67.0,29.82,SW,225,0.0,4.0,92,0.00,,,-99.99,WeatherLink 5.6,2013-07-20 11:00:00,
2013-07-20 07:30:00,69.9,67.5,29.82,North,-999,0.0,0.0,92,0.00,,,-99.99,WeatherLink 5.6,2013-07-20 11:30:00,
2013-07-20 08:00:00,71.3,68.5,29.81,North,-999,0.0,0.0,91,0.00,,,-99.99,WeatherLink 5.6,2013-07-20 12:00:00,
2013-07-20 08:30:00,71.1,68.3,29.83,South,180,0.0,5.0,91,0.00,,,-99.99,WeatherLink 5.6,2013-07-20 12:30:00,
2013-07-20 09:00:00,73.4,70.0,29.83,South,180,0.0,3.0,89,0.00,,,-99.99,WeatherLink 5.6,2013-07-20 13:00:00,
2013-07-20 09:30:00,74.2,70.1,29.82,West,270,2.0,11.0,87,0.00,,,-99.99,WeatherLink 5.6,2013-07-20 13:30:00,
2013-07-20 10:00:00,75.4,71.6,29.82,WSW,247,2.0,10.0,88,0.00,,,-99.99,WeatherLink 5.6,2013-07-20 14:00:00,
2013-07-20 10:30:00,74.6,70.5,29.82,South,180,1.0,10.0,87,0.00,,,-99.99,WeatherLink 5.6,2013-07-20 14:30:00,
2013-07-20 11:00:00,74.6,70.8,29.82,SSE,157,1.0,11.0,88,0.00,,,-99.99,WeatherLink 5.6,2013-07-20 15:00:00,
2013-07-20 11:30:00,75.8,72.3,29.82,South,180,1.0,6.0,89,0.00,,,-99.99,WeatherLink 5.6,2013-07-20 15:30:00,
2013-07-20 12:00:00,77.4,70.4,29.81,SE,135,1.0,10.0,79,0.00,,,-99.99,WeatherLink 5.6,2013-07-20 16:00:00,
2013-07-20 12:30:00,76.3,71.5,29.81,NW,315,0.0,5.0,85,0.00,,,-99.99,WeatherLink 5.6,2013-07-20 16:30:00,
2013-07-20 13:00:00,76.3,71.8,29.79,SSE,157,0.0,2.0,86,0.00,,,-99.99,WeatherLink 5.6,2013-07-20 17:00:00,
2013-07-20 13:30:00,76.4,71.9,29.78,South,180,1.0,9.0,86,0.00,,,-99.99,WeatherLink 5.6,2013-07-20 17:30:00,
2013-07-20 14:00:00,79.4,70.8,29.77,SSW,202,1.0,7.0,75,0.00,,,-99.99,WeatherLink 5.6,2013-07-20 18:00:00,
2013-07-20 14:30:00,78.8,70.6,29.77,West,270,1.0,9.0,76,0.00,,,-99.99,WeatherLink 5.6,2013-07-20 18:30:00,
2013-07-20 15:00:00,81.7,73.0,29.74,SW,225,0.0,5.0,75,0.00,,,-99.99,WeatherLink 5.6,2013-07-20 19:00:00,
2013-07-20 15:30:00,77.6,71.7,29.74,South,180,1.0,9.0,82,0.00,,,-99.99,WeatherLink 5.6,2013-07-20 19:30:00,
2013-07-20 16:00:00,77.6,71.3,29.74,South,180,2.0,14.0,81,0.00,,,-99.99,WeatherLink 5.6,2013-07-20 20:00:00,
2013-07-20 16:30:00,73.8,69.0,29.75,South,180,6.0,19.0,85,0.00,,,-99.99,WeatherLink 5.6,2013-07-20 20:30:00,
2013-07-20 17:00:00,76.5,69.5,29.74,SSW,202,4.0,16.0,79,0.00,,,-99.99,WeatherLink 5.6,2013-07-20 21:00:00,
2013-07-20 17:30:00,76.0,70.1,29.75,South,180,3.0,10.0,82,0.00,,,-99.99,WeatherLink 5.6,2013-07-20 21:30:00,
2013-07-20 18:00:00,75.9,70.7,29.73,South,180,5.0,13.0,84,0.00,,,-99.99,WeatherLink 5.6,2013-07-20 22:00:00,
2013-07-20 18:30:00,75.1,70.6,29.73,South,180,6.0,14.0,86,0.00,,,-99.99,WeatherLink 5.6,2013-07-20 22:30:00,
2013-07-20 19:00:00,73.9,69.8,29.75,South,180,4.0,12.0,87,0.00,,,-99.99,WeatherLink 5.6,2013-07-20 23:00:00,
2013-07-20 19:30:00,73.4,69.6,29.74,South,180,3.0,12.0,88,0.00,,,-99.99,WeatherLink 5.6,2013-07-20 23:30:00,
2013-07-20 20:00:00,72.9,69.8,29.76,SSW,202,2.0,8.0,90,0.00,,,-99.99,WeatherLink 5.6,2013-07-21 00:00:00,
2013-07-20 20:30:00,71.1,64.3,29.77,West,270,5.0,15.0,79,0.00,,,-99.99,WeatherLink 5.6,2013-07-21 00:30:00,
2013-07-20 21:00:00,69.8,64.4,29.77,West,270,6.0,15.0,83,0.01,,,-99.99,WeatherLink 5.6,2013-07-21 01:00:00,
2013-07-20 21:30:00,72.0,65.5,29.76,North,-999,0.0,0.0,80,0.02,,,-99.99,WeatherLink 5.6,2013-07-21 01:30:00,
2013-07-20 22:00:00,72.5,66.3,29.76,North,-999,0.0,0.0,81,0.01,,,-99.99,WeatherLink 5.6,2013-07-21 02:00:00,
2013-07-20 22:30:00,71.7,64.5,29.78,North,-999,0.0,0.0,78,0.00,,,-99.99,WeatherLink 5.6,2013-07-21 02:30:00,
2013-07-20 23:00:00,71.3,65.9,29.79,South,180,0.0,3.0,83,0.00,,,-99.99,WeatherLink 5.6,2013-07-21 03:00:00,
2013-07-20 23:30:00,71.0,67.3,29.78,South,180,2.0,10.0,88,0.00,,,-99.99,WeatherLink 5.6,2013-07-21 03:30:00,